sensor_id;sensor_type;location;lat;lon;timestamp;pressure;altitude;pressure_sealevel;temperature;humidity
29903;BME280;30288;50.514;9.678;2022-12-18T00:01:19;100075.88;;;-13.02;100.00
29903;BME280;30288;50.514;9.678;2022-12-18T00:03:25;100079.00;;;-13.03;100.00
29903;BME280;30288;50.514;9.678;2022-12-18T00:05:30;100082.81;;;-13.15;100.00
29903;BME280;30288;50.514;9.678;2022-12-18T00:07:39;100086.53;;;-13.00;100.00
29903;BME280;30288;50.514;9.678;2022-12-18T00:09:44;100091.69;;;-13.06;100.00
29903;BME280;30288;50.514;9.678;2022-12-18T00:11:50;100090.59;;;-13.09;100.00
29903;BME280;30288;50.514;9.678;2022-12-18T00:13:57;100088.31;;;-12.89;100.00
29903;BME280;30288;50.514;9.678;2022-12-18T00:16:04;100091.25;;;-12.83;100.00
29903;BME280;30288;50.514;9.678;2022-12-18T00:18:10;100094.97;;;-13.05;100.00
29903;BME280;30288;50.514;9.678;2022-12-18T00:20:21;100082.75;;;-13.25;100.00
29903;BME280;30288;50.514;9.678;2022-12-18T00:22:28;100085.84;;;-13.18;100.00
29903;BME280;30288;50.514;9.678;2022-12-18T00:24:35;100088.25;;;-12.99;100.00
29903;BME280;30288;50.514;9.678;2022-12-18T00:26:40;100085.59;;;-13.21;100.00
29903;BME280;30288;50.514;9.678;2022-12-18T00:28:46;100100.22;;;-13.38;100.00
29903;BME280;30288;50.514;9.678;2022-12-18T00:30:58;100098.56;;;-13.48;100.00
29903;BME280;30288;50.514;9.678;2022-12-18T00:33:04;100093.50;;;-13.13;100.00
29903;BME280;30288;50.514;9.678;2022-12-18T00:35:09;100093.72;;;-13.10;100.00
29903;BME280;30288;50.514;9.678;2022-12-18T00:37:14;100095.38;;;-12.82;100.00
29903;BME280;30288;50.514;9.678;2022-12-18T00:39:25;100091.44;;;-12.71;100.00
29903;BME280;30288;50.514;9.678;2022-12-18T00:41:33;100090.97;;;-12.86;100.00
29903;BME280;30288;50.514;9.678;2022-12-18T00:43:51;100103.72;;;-13.07;100.00
29903;BME280;30288;50.514;9.678;2022-12-18T00:45:56;100102.41;;;-13.22;100.00
29903;BME280;30288;50.514;9.678;2022-12-18T00:48:02;100103.97;;;-13.42;100.00
29903;BME280;30288;50.514;9.678;2022-12-18T00:50:09;100100.75;;;-13.51;100.00
29903;BME280;30288;50.514;9.678;2022-12-18T00:52:16;100093.81;;;-13.38;100.00
29903;BME280;30288;50.514;9.678;2022-12-18T00:54:21;100095.16;;;-13.22;100.00
29903;BME280;30288;50.514;9.678;2022-12-18T00:56:26;100091.81;;;-13.14;100.00
29903;BME280;30288;50.514;9.678;2022-12-18T00:58:34;100092.50;;;-13.15;100.00
29903;BME280;30288;50.514;9.678;2022-12-18T01:00:39;100100.44;;;-13.26;100.00
29903;BME280;30288;50.514;9.678;2022-12-18T01:02:45;100105.22;;;-13.37;100.00
29903;BME280;30288;50.514;9.678;2022-12-18T01:04:52;100115.63;;;-13.38;100.00
29903;BME280;30288;50.514;9.678;2022-12-18T01:06:57;100109.78;;;-13.40;100.00
29903;BME280;30288;50.514;9.678;2022-12-18T01:09:02;100104.50;;;-13.36;100.00
29903;BME280;30288;50.514;9.678;2022-12-18T01:11:13;100104.22;;;-13.39;100.00
29903;BME280;30288;50.514;9.678;2022-12-18T01:13:19;100103.31;;;-13.58;100.00
29903;BME280;30288;50.514;9.678;2022-12-18T01:15:27;100106.75;;;-13.56;100.00
29903;BME280;30288;50.514;9.678;2022-12-18T01:17:33;100118.66;;;-13.49;100.00
29903;BME280;30288;50.514;9.678;2022-12-18T01:19:39;100120.81;;;-13.52;100.00
29903;BME280;30288;50.514;9.678;2022-12-18T01:21:45;100127.38;;;-13.51;100.00
29903;BME280;30288;50.514;9.678;2022-12-18T01:23:52;100130.16;;;-13.38;100.00
29903;BME280;30288;50.514;9.678;2022-12-18T01:25:58;100137.06;;;-13.23;100.00
29903;BME280;30288;50.514;9.678;2022-12-18T01:28:10;100134.13;;;-13.38;100.00
29903;BME280;30288;50.514;9.678;2022-12-18T01:30:15;100132.69;;;-13.55;100.00
29903;BME280;30288;50.514;9.678;2022-12-18T01:32:23;100135.97;;;-13.63;100.00
29903;BME280;30288;50.514;9.678;2022-12-18T01:34:28;100134.31;;;-13.72;100.00
29903;BME280;30288;50.514;9.678;2022-12-18T01:36:35;100132.28;;;-13.68;100.00
29903;BME280;30288;50.514;9.678;2022-12-18T01:38:41;100134.75;;;-13.41;100.00
29903;BME280;30288;50.514;9.678;2022-12-18T01:40:46;100126.91;;;-13.19;100.00
29903;BME280;30288;50.514;9.678;2022-12-18T01:42:52;100125.25;;;-13.29;100.00
29903;BME280;30288;50.514;9.678;2022-12-18T01:45:21;100125.19;;;-13.20;100.00
29903;BME280;30288;50.514;9.678;2022-12-18T01:47:36;100125.78;;;-13.23;100.00
29903;BME280;30288;50.514;9.678;2022-12-18T01:49:42;100135.16;;;-13.17;100.00
29903;BME280;30288;50.514;9.678;2022-12-18T01:51:47;100128.28;;;-13.13;100.00
29903;BME280;30288;50.514;9.678;2022-12-18T01:53:53;100140.28;;;-13.14;100.00
29903;BME280;30288;50.514;9.678;2022-12-18T01:55:59;100128.94;;;-13.24;100.00
29903;BME280;30288;50.514;9.678;2022-12-18T01:58:05;100130.03;;;-13.20;100.00
29903;BME280;30288;50.514;9.678;2022-12-18T02:00:15;100122.34;;;-13.16;100.00
29903;BME280;30288;50.514;9.678;2022-12-18T02:02:21;100129.78;;;-13.23;100.00
29903;BME280;30288;50.514;9.678;2022-12-18T02:04:30;100127.19;;;-13.06;100.00
29903;BME280;30288;50.514;9.678;2022-12-18T02:06:40;100131.63;;;-13.02;100.00
29903;BME280;30288;50.514;9.678;2022-12-18T02:08:57;100117.31;;;-12.99;100.00
29903;BME280;30288;50.514;9.678;2022-12-18T02:11:10;100112.66;;;-13.16;100.00
29903;BME280;30288;50.514;9.678;2022-12-18T02:13:28;100120.50;;;-13.19;100.00
29903;BME280;30288;50.514;9.678;2022-12-18T02:15:41;100118.66;;;-13.21;100.00
29903;BME280;30288;50.514;9.678;2022-12-18T02:17:54;100115.06;;;-13.44;100.00
29903;BME280;30288;50.514;9.678;2022-12-18T02:20:07;100114.47;;;-13.60;100.00
29903;BME280;30288;50.514;9.678;2022-12-18T02:22:29;100116.06;;;-13.42;100.00
29903;BME280;30288;50.514;9.678;2022-12-18T02:24:54;100117.44;;;-13.62;100.00
29903;BME280;30288;50.514;9.678;2022-12-18T02:27:08;100119.75;;;-13.64;100.00
29903;BME280;30288;50.514;9.678;2022-12-18T02:29:20;100117.09;;;-13.48;100.00
29903;BME280;30288;50.514;9.678;2022-12-18T02:31:35;100117.38;;;-13.45;100.00
29903;BME280;30288;50.514;9.678;2022-12-18T02:33:42;100114.50;;;-13.41;100.00
29903;BME280;30288;50.514;9.678;2022-12-18T02:35:49;100111.38;;;-13.40;100.00
29903;BME280;30288;50.514;9.678;2022-12-18T02:37:56;100105.13;;;-13.47;100.00
29903;BME280;30288;50.514;9.678;2022-12-18T02:40:07;100111.09;;;-13.43;100.00
29903;BME280;30288;50.514;9.678;2022-12-18T02:42:16;100112.47;;;-13.37;100.00
29903;BME280;30288;50.514;9.678;2022-12-18T02:44:23;100119.13;;;-13.53;100.00
29903;BME280;30288;50.514;9.678;2022-12-18T02:46:36;100111.84;;;-13.53;100.00
29903;BME280;30288;50.514;9.678;2022-12-18T02:48:47;100122.91;;;-13.65;100.00
29903;BME280;30288;50.514;9.678;2022-12-18T02:51:00;100114.97;;;-13.81;100.00
29903;BME280;30288;50.514;9.678;2022-12-18T02:53:15;100122.59;;;-13.68;100.00
29903;BME280;30288;50.514;9.678;2022-12-18T02:55:34;100121.72;;;-13.60;100.00
29903;BME280;30288;50.514;9.678;2022-12-18T02:57:53;100128.84;;;-13.61;100.00
29903;BME280;30288;50.514;9.678;2022-12-18T03:00:08;100127.25;;;-13.88;100.00
29903;BME280;30288;50.514;9.678;2022-12-18T03:02:21;100135.84;;;-14.00;100.00
29903;BME280;30288;50.514;9.678;2022-12-18T03:04:34;100137.81;;;-13.88;100.00
29903;BME280;30288;50.514;9.678;2022-12-18T03:06:47;100127.25;;;-13.88;100.00
29903;BME280;30288;50.514;9.678;2022-12-18T03:08:59;100126.19;;;-13.73;100.00
29903;BME280;30288;50.514;9.678;2022-12-18T03:11:09;100130.34;;;-13.81;100.00
29903;BME280;30288;50.514;9.678;2022-12-18T03:13:23;100128.53;;;-13.92;100.00
29903;BME280;30288;50.514;9.678;2022-12-18T03:15:37;100142.66;;;-13.96;100.00
29903;BME280;30288;50.514;9.678;2022-12-18T03:17:52;100148.94;;;-13.98;100.00
29903;BME280;30288;50.514;9.678;2022-12-18T03:20:07;100150.09;;;-14.03;100.00
29903;BME280;30288;50.514;9.678;2022-12-18T03:22:16;100136.38;;;-13.94;100.00
29903;BME280;30288;50.514;9.678;2022-12-18T03:24:28;100123.94;;;-14.16;100.00
29903;BME280;30288;50.514;9.678;2022-12-18T03:26:37;100114.34;;;-14.06;100.00
29903;BME280;30288;50.514;9.678;2022-12-18T03:28:53;100119.41;;;-14.22;100.00
29903;BME280;30288;50.514;9.678;2022-12-18T03:31:02;100114.56;;;-14.22;100.00
29903;BME280;30288;50.514;9.678;2022-12-18T03:33:14;100124.59;;;-14.36;100.00
29903;BME280;30288;50.514;9.678;2022-12-18T03:35:29;100119.81;;;-14.17;100.00
29903;BME280;30288;50.514;9.678;2022-12-18T03:37:36;100119.06;;;-14.07;100.00
29903;BME280;30288;50.514;9.678;2022-12-18T03:39:42;100119.06;;;-14.07;100.00
29903;BME280;30288;50.514;9.678;2022-12-18T03:41:55;100123.09;;;-14.16;100.00
29903;BME280;30288;50.514;9.678;2022-12-18T03:44:20;100120.69;;;-14.34;100.00
29903;BME280;30288;50.514;9.678;2022-12-18T03:46:36;100119.78;;;-14.44;100.00
29903;BME280;30288;50.514;9.678;2022-12-18T03:48:51;100123.47;;;-14.56;100.00
29903;BME280;30288;50.514;9.678;2022-12-18T03:51:00;100123.19;;;-14.59;100.00
29903;BME280;30288;50.514;9.678;2022-12-18T03:53:21;100132.56;;;-14.37;100.00
29903;BME280;30288;50.514;9.678;2022-12-18T03:55:32;100115.97;;;-14.24;100.00
29903;BME280;30288;50.514;9.678;2022-12-18T03:57:40;100108.50;;;-13.99;100.00
29903;BME280;30288;50.514;9.678;2022-12-18T03:59:54;100109.88;;;-13.84;100.00
29903;BME280;30288;50.514;9.678;2022-12-18T04:02:16;100104.94;;;-13.94;100.00
29903;BME280;30288;50.514;9.678;2022-12-18T04:04:22;100116.50;;;-14.09;100.00
29903;BME280;30288;50.514;9.678;2022-12-18T04:06:31;100115.94;;;-14.06;100.00
29903;BME280;30288;50.514;9.678;2022-12-18T04:08:36;100127.38;;;-14.23;100.00
29903;BME280;30288;50.514;9.678;2022-12-18T04:10:45;100123.38;;;-14.22;100.00
29903;BME280;30288;50.514;9.678;2022-12-18T04:12:50;100118.25;;;-14.25;100.00
29903;BME280;30288;50.514;9.678;2022-12-18T04:14:58;100115.66;;;-14.09;100.00
29903;BME280;30288;50.514;9.678;2022-12-18T04:17:04;100121.81;;;-14.22;100.00
29903;BME280;30288;50.514;9.678;2022-12-18T04:19:09;100131.44;;;-14.40;100.00
29903;BME280;30288;50.514;9.678;2022-12-18T04:21:16;100109.94;;;-14.37;100.00
29903;BME280;30288;50.514;9.678;2022-12-18T04:23:23;100112.28;;;-14.29;100.00
29903;BME280;30288;50.514;9.678;2022-12-18T04:25:32;100108.59;;;-14.34;100.00
29903;BME280;30288;50.514;9.678;2022-12-18T04:27:41;100114.50;;;-14.49;100.00
29903;BME280;30288;50.514;9.678;2022-12-18T04:29:47;100122.59;;;-14.40;100.00
29903;BME280;30288;50.514;9.678;2022-12-18T04:31:55;100128.84;;;-14.42;100.00
29903;BME280;30288;50.514;9.678;2022-12-18T04:34:04;100120.56;;;-14.27;100.00
29903;BME280;30288;50.514;9.678;2022-12-18T04:36:15;100123.19;;;-14.51;100.00
29903;BME280;30288;50.514;9.678;2022-12-18T04:38:21;100126.31;;;-14.52;100.00
29903;BME280;30288;50.514;9.678;2022-12-18T04:40:36;100113.78;;;-14.48;100.00
29903;BME280;30288;50.514;9.678;2022-12-18T04:42:49;100108.09;;;-14.40;100.00
29903;BME280;30288;50.514;9.678;2022-12-18T04:44:55;100111.50;;;-14.38;100.00
29903;BME280;30288;50.514;9.678;2022-12-18T04:47:03;100110.66;;;-14.47;100.00
29903;BME280;30288;50.514;9.678;2022-12-18T04:49:10;100113.44;;;-14.34;100.00
29903;BME280;30288;50.514;9.678;2022-12-18T04:51:15;100115.75;;;-14.35;100.00
29903;BME280;30288;50.514;9.678;2022-12-18T04:53:28;100119.69;;;-14.27;100.00
29903;BME280;30288;50.514;9.678;2022-12-18T04:55:33;100115.97;;;-14.24;100.00
29903;BME280;30288;50.514;9.678;2022-12-18T04:57:38;100114.25;;;-14.25;100.00
29903;BME280;30288;50.514;9.678;2022-12-18T04:59:44;100128.84;;;-14.42;100.00
29903;BME280;30288;50.514;9.678;2022-12-18T05:01:49;100133.69;;;-14.42;100.00
29903;BME280;30288;50.514;9.678;2022-12-18T05:03:57;100130.56;;;-14.41;100.00
29903;BME280;30288;50.514;9.678;2022-12-18T05:06:03;100135.44;;;-14.49;100.00
29903;BME280;30288;50.514;9.678;2022-12-18T05:08:09;100140.13;;;-14.51;100.00
29903;BME280;30288;50.514;9.678;2022-12-18T05:10:14;100133.63;;;-14.25;100.00
29903;BME280;30288;50.514;9.678;2022-12-18T05:12:25;100125.16;;;-14.47;100.00
29903;BME280;30288;50.514;9.678;2022-12-18T05:14:30;100117.66;;;-14.50;100.00
29903;BME280;30288;50.514;9.678;2022-12-18T05:16:35;100122.91;;;-14.54;100.00
29903;BME280;30288;50.514;9.678;2022-12-18T05:18:40;100119.19;;;-14.50;100.00
29903;BME280;30288;50.514;9.678;2022-12-18T05:20:49;100123.19;;;-14.59;100.00
29903;BME280;30288;50.514;9.678;2022-12-18T05:22:54;100137.97;;;-14.82;100.00
29903;BME280;30288;50.514;9.678;2022-12-18T05:25:00;100132.00;;;-14.77;100.00
29903;BME280;30288;50.514;9.678;2022-12-18T05:27:05;100138.25;;;-14.62;100.00
29903;BME280;30288;50.514;9.678;2022-12-18T05:29:10;100142.25;;;-14.54;100.00
29903;BME280;30288;50.514;9.678;2022-12-18T05:31:16;100138.97;;;-14.46;100.00
29903;BME280;30288;50.514;9.678;2022-12-18T05:33:24;100138.41;;;-14.52;100.00
29903;BME280;30288;50.514;9.678;2022-12-18T05:35:29;100139.28;;;-14.60;100.00
29903;BME280;30288;50.514;9.678;2022-12-18T05:37:37;100141.81;;;-14.67;100.00
29903;BME280;30288;50.514;9.678;2022-12-18T05:39:44;100145.38;;;-14.72;100.00
29903;BME280;30288;50.514;9.678;2022-12-18T05:41:49;100150.50;;;-14.78;100.00
29903;BME280;30288;50.514;9.678;2022-12-18T05:43:54;100159.72;;;-14.82;100.00
29903;BME280;30288;50.514;9.678;2022-12-18T05:46:04;100158.75;;;-14.84;100.00
29903;BME280;30288;50.514;9.678;2022-12-18T05:48:13;100159.59;;;-14.92;100.00
29903;BME280;30288;50.514;9.678;2022-12-18T05:50:18;100153.47;;;-14.80;100.00
29903;BME280;30288;50.514;9.678;2022-12-18T05:52:23;100148.22;;;-14.76;100.00
29903;BME280;30288;50.514;9.678;2022-12-18T05:54:31;100156.19;;;-14.69;100.00
29903;BME280;30288;50.514;9.678;2022-12-18T05:56:36;100154.19;;;-14.73;100.00
29903;BME280;30288;50.514;9.678;2022-12-18T05:58:52;100156.31;;;-14.84;100.00
29903;BME280;30288;50.514;9.678;2022-12-18T06:00:57;100158.03;;;-14.66;100.00
29903;BME280;30288;50.514;9.678;2022-12-18T06:03:03;100167.28;;;-14.79;100.00
29903;BME280;30288;50.514;9.678;2022-12-18T06:05:08;100157.06;;;-14.68;100.00
29903;BME280;30288;50.514;9.678;2022-12-18T06:07:13;100163.16;;;-14.80;100.00
29903;BME280;30288;50.514;9.678;2022-12-18T06:09:18;100161.59;;;-14.71;100.00
29903;BME280;30288;50.514;9.678;2022-12-18T06:11:26;100169.38;;;-14.91;100.00
29903;BME280;30288;50.514;9.678;2022-12-18T06:13:32;100177.53;;;-14.73;100.00
29903;BME280;30288;50.514;9.678;2022-12-18T06:15:37;100173.25;;;-14.84;100.00
29903;BME280;30288;50.514;9.678;2022-12-18T06:17:43;100174.09;;;-14.84;100.00
29903;BME280;30288;50.514;9.678;2022-12-18T06:19:47;100172.13;;;-14.79;100.00
29903;BME280;30288;50.514;9.678;2022-12-18T06:21:52;100172.38;;;-14.76;100.00
29903;BME280;30288;50.514;9.678;2022-12-18T06:24:00;100167.53;;;-14.68;100.00
29903;BME280;30288;50.514;9.678;2022-12-18T06:26:07;100170.41;;;-14.89;100.00
29903;BME280;30288;50.514;9.678;2022-12-18T06:28:15;100154.47;;;-15.04;100.00
29903;BME280;30288;50.514;9.678;2022-12-18T06:30:20;100149.19;;;-15.08;100.00
29903;BME280;30288;50.514;9.678;2022-12-18T06:32:25;100145.94;;;-15.09;100.00
29903;BME280;30288;50.514;9.678;2022-12-18T06:34:32;100141.38;;;-15.15;100.00
29903;BME280;30288;50.514;9.678;2022-12-18T06:36:37;100138.50;;;-15.28;100.00
29903;BME280;30288;50.514;9.678;2022-12-18T06:38:44;100137.63;;;-15.37;100.00
29903;BME280;30288;50.514;9.678;2022-12-18T06:40:49;100147.13;;;-15.47;100.00
29903;BME280;30288;50.514;9.678;2022-12-18T06:42:54;100145.88;;;-15.52;100.00
29903;BME280;30288;50.514;9.678;2022-12-18T06:45:03;100155.56;;;-15.35;100.00
29903;BME280;30288;50.514;9.678;2022-12-18T06:47:08;100156.09;;;-15.37;100.00
29903;BME280;30288;50.514;9.678;2022-12-18T06:49:13;100156.88;;;-15.13;100.00
29903;BME280;30288;50.514;9.678;2022-12-18T06:51:20;100158.44;;;-15.13;100.00
29903;BME280;30288;50.514;9.678;2022-12-18T06:53:26;100156.97;;;-15.20;100.00
29903;BME280;30288;50.514;9.678;2022-12-18T06:55:32;100161.56;;;-15.05;100.00
29903;BME280;30288;50.514;9.678;2022-12-18T06:57:37;100159.00;;;-15.07;100.00
29903;BME280;30288;50.514;9.678;2022-12-18T06:59:42;100168.97;;;-14.95;100.00
29903;BME280;30288;50.514;9.678;2022-12-18T07:01:50;100165.41;;;-15.07;100.00
29903;BME280;30288;50.514;9.678;2022-12-18T07:03:57;100169.22;;;-15.01;100.00
29903;BME280;30288;50.514;9.678;2022-12-18T07:06:03;100165.84;;;-14.94;100.00
29903;BME280;30288;50.514;9.678;2022-12-18T07:08:08;100169.97;;;-14.76;100.00
29903;BME280;30288;50.514;9.678;2022-12-18T07:10:13;100170.13;;;-14.66;100.00
29903;BME280;30288;50.514;9.678;2022-12-18T07:12:18;100165.28;;;-14.83;100.00
29903;BME280;30288;50.514;9.678;2022-12-18T07:14:24;100165.13;;;-14.93;100.00
29903;BME280;30288;50.514;9.678;2022-12-18T07:16:29;100174.38;;;-14.89;100.00
29903;BME280;30288;50.514;9.678;2022-12-18T07:18:37;100170.69;;;-14.69;100.00
29903;BME280;30288;50.514;9.678;2022-12-18T07:20:42;100179.50;;;-14.69;100.00
29903;BME280;30288;50.514;9.678;2022-12-18T07:22:48;100185.19;;;-14.60;100.00
29903;BME280;30288;50.514;9.678;2022-12-18T07:24:57;100184.03;;;-14.72;100.00
29903;BME280;30288;50.514;9.678;2022-12-18T07:27:02;100189.19;;;-14.69;100.00
29903;BME280;30288;50.514;9.678;2022-12-18T07:29:09;100186.31;;;-14.82;100.00
29903;BME280;30288;50.514;9.678;2022-12-18T07:31:18;100190.44;;;-14.81;100.00
29903;BME280;30288;50.514;9.678;2022-12-18T07:33:24;100192.31;;;-14.70;100.00
29903;BME280;30288;50.514;9.678;2022-12-18T07:35:33;100193.72;;;-14.81;100.00
29903;BME280;30288;50.514;9.678;2022-12-18T07:37:38;100191.56;;;-14.86;100.00
29903;BME280;30288;50.514;9.678;2022-12-18T07:39:43;100193.16;;;-14.78;100.00
29903;BME280;30288;50.514;9.678;2022-12-18T07:41:51;100199.13;;;-14.83;100.00
29903;BME280;30288;50.514;9.678;2022-12-18T07:44:09;100204.97;;;-14.64;100.00
29903;BME280;30288;50.514;9.678;2022-12-18T07:46:16;100200.56;;;-14.68;100.00
29903;BME280;30288;50.514;9.678;2022-12-18T07:48:21;100201.28;;;-14.69;100.00
29903;BME280;30288;50.514;9.678;2022-12-18T07:50:26;100205.09;;;-14.71;100.00
29903;BME280;30288;50.514;9.678;2022-12-18T07:52:34;100205.66;;;-14.74;100.00
29903;BME280;30288;50.514;9.678;2022-12-18T07:54:39;100207.06;;;-14.67;100.00
29903;BME280;30288;50.514;9.678;2022-12-18T07:56:44;100205.81;;;-14.55;100.00
29903;BME280;30288;50.514;9.678;2022-12-18T07:58:49;100198.56;;;-14.55;100.00
29903;BME280;30288;50.514;9.678;2022-12-18T08:01:02;100196.56;;;-14.50;100.00
29903;BME280;30288;50.514;9.678;2022-12-18T08:03:08;100197.16;;;-14.44;100.00
29903;BME280;30288;50.514;9.678;2022-12-18T08:05:15;100200.50;;;-14.34;100.00
29903;BME280;30288;50.514;9.678;2022-12-18T08:07:20;100204.91;;;-14.30;100.00
29903;BME280;30288;50.514;9.678;2022-12-18T08:09:28;100198.53;;;-14.21;100.00
29903;BME280;30288;50.514;9.678;2022-12-18T08:11:33;100196.19;;;-14.10;100.00
29903;BME280;30288;50.514;9.678;2022-12-18T08:13:38;100197.25;;;-13.72;100.00
29903;BME280;30288;50.514;9.678;2022-12-18T08:15:43;100189.56;;;-13.77;100.00
29903;BME280;30288;50.514;9.678;2022-12-18T08:17:48;100191.56;;;-13.73;100.00
29903;BME280;30288;50.514;9.678;2022-12-18T08:19:53;100183.84;;;-13.60;100.00
29903;BME280;30288;50.514;9.678;2022-12-18T08:21:58;100182.91;;;-13.44;100.00
29903;BME280;30288;50.514;9.678;2022-12-18T08:24:05;100175.28;;;-13.29;100.00
29903;BME280;30288;50.514;9.678;2022-12-18T08:26:13;100172.47;;;-13.15;100.00
29903;BME280;30288;50.514;9.678;2022-12-18T08:28:18;100176.16;;;-12.92;100.00
29903;BME280;30288;50.514;9.678;2022-12-18T08:30:24;100176.13;;;-12.83;100.00
29903;BME280;30288;50.514;9.678;2022-12-18T08:32:30;100177.34;;;-12.78;100.00
29903;BME280;30288;50.514;9.678;2022-12-18T08:34:35;100164.50;;;-12.77;100.00
29903;BME280;30288;50.514;9.678;2022-12-18T08:36:40;100159.63;;;-12.39;100.00
29903;BME280;30288;50.514;9.678;2022-12-18T08:38:46;100154.84;;;-12.48;100.00
29903;BME280;30288;50.514;9.678;2022-12-18T08:40:58;100160.16;;;-12.33;100.00
29903;BME280;30288;50.514;9.678;2022-12-18T08:43:08;100154.97;;;-12.28;100.00
29903;BME280;30288;50.514;9.678;2022-12-18T08:45:27;100153.84;;;-12.31;100.00
29903;BME280;30288;50.514;9.678;2022-12-18T08:47:32;100144.22;;;-12.11;100.00
29903;BME280;30288;50.514;9.678;2022-12-18T08:49:37;100143.72;;;-12.17;100.00
29903;BME280;30288;50.514;9.678;2022-12-18T08:51:43;100139.34;;;-12.11;100.00
29903;BME280;30288;50.514;9.678;2022-12-18T08:53:48;100135.97;;;-12.13;100.00
29903;BME280;30288;50.514;9.678;2022-12-18T08:55:53;100137.59;;;-12.04;100.00
29903;BME280;30288;50.514;9.678;2022-12-18T08:57:58;100141.38;;;-11.87;100.00
29903;BME280;30288;50.514;9.678;2022-12-18T09:00:09;100138.00;;;-11.89;100.00
29903;BME280;30288;50.514;9.678;2022-12-18T09:02:16;100134.84;;;-11.78;100.00
29903;BME280;30288;50.514;9.678;2022-12-18T09:04:21;100132.31;;;-11.69;100.00
29903;BME280;30288;50.514;9.678;2022-12-18T09:06:26;100138.00;;;-11.59;100.00
29903;BME280;30288;50.514;9.678;2022-12-18T09:08:35;100132.78;;;-11.63;100.00
29903;BME280;30288;50.514;9.678;2022-12-18T09:10:46;100137.78;;;-11.52;100.00
29903;BME280;30288;50.514;9.678;2022-12-18T09:12:51;100133.16;;;-11.38;100.00
29903;BME280;30288;50.514;9.678;2022-12-18T09:14:58;100141.81;;;-11.32;100.00
29903;BME280;30288;50.514;9.678;2022-12-18T09:17:06;100132.19;;;-11.30;100.00
29903;BME280;30288;50.514;9.678;2022-12-18T09:19:11;100125.16;;;-11.07;100.00
29903;BME280;30288;50.514;9.678;2022-12-18T09:21:19;100123.91;;;-11.02;100.00
29903;BME280;30288;50.514;9.678;2022-12-18T09:23:25;100117.84;;;-10.97;100.00
29903;BME280;30288;50.514;9.678;2022-12-18T09:25:30;100105.66;;;-10.87;100.00
29903;BME280;30288;50.514;9.678;2022-12-18T09:27:37;100107.13;;;-10.79;100.00
29903;BME280;30288;50.514;9.678;2022-12-18T09:29:42;100112.22;;;-10.76;100.00
29903;BME280;30288;50.514;9.678;2022-12-18T09:31:48;100098.47;;;-10.65;100.00
29903;BME280;30288;50.514;9.678;2022-12-18T09:33:57;100098.69;;;-10.62;100.00
29903;BME280;30288;50.514;9.678;2022-12-18T09:36:04;100094.59;;;-10.41;100.00
29903;BME280;30288;50.514;9.678;2022-12-18T09:38:13;100093.47;;;-10.35;100.00
29903;BME280;30288;50.514;9.678;2022-12-18T09:40:22;100094.56;;;-10.31;100.00
29903;BME280;30288;50.514;9.678;2022-12-18T09:42:28;100094.13;;;-10.15;100.00
29903;BME280;30288;50.514;9.678;2022-12-18T09:44:39;100093.13;;;-9.96;100.00
29903;BME280;30288;50.514;9.678;2022-12-18T09:46:53;100091.72;;;-9.82;100.00
29903;BME280;30288;50.514;9.678;2022-12-18T09:49:06;100093.91;;;-9.63;100.00
29903;BME280;30288;50.514;9.678;2022-12-18T09:51:17;100094.34;;;-9.57;100.00
29903;BME280;30288;50.514;9.678;2022-12-18T09:53:27;100087.41;;;-9.41;100.00
29903;BME280;30288;50.514;9.678;2022-12-18T09:55:38;100082.22;;;-9.46;100.00
29903;BME280;30288;50.514;9.678;2022-12-18T09:57:51;100093.34;;;-9.38;100.00
29903;BME280;30288;50.514;9.678;2022-12-18T10:00:08;100107.94;;;-9.49;100.00
29903;BME280;30288;50.514;9.678;2022-12-18T10:02:20;100110.75;;;-9.33;100.00
29903;BME280;30288;50.514;9.678;2022-12-18T10:04:30;100111.22;;;-9.27;100.00
29903;BME280;30288;50.514;9.678;2022-12-18T10:06:45;100108.66;;;-9.17;100.00
29903;BME280;30288;50.514;9.678;2022-12-18T10:09:00;100108.91;;;-9.14;100.00
29903;BME280;30288;50.514;9.678;2022-12-18T10:11:26;100103.59;;;-8.97;100.00
29903;BME280;30288;50.514;9.678;2022-12-18T10:13:39;100116.16;;;-8.80;100.00
29903;BME280;30288;50.514;9.678;2022-12-18T10:15:58;100116.59;;;-8.74;100.00
29903;BME280;30288;50.514;9.678;2022-12-18T10:18:21;100125.72;;;-8.60;100.00
29903;BME280;30288;50.514;9.678;2022-12-18T10:20:38;100104.56;;;-8.48;100.00
29903;BME280;30288;50.514;9.678;2022-12-18T10:22:55;100099.19;;;-8.56;100.00
29903;BME280;30288;50.514;9.678;2022-12-18T10:25:10;100103.28;;;-8.55;100.00
29903;BME280;30288;50.514;9.678;2022-12-18T10:27:24;100104.03;;;-8.44;100.00
29903;BME280;30288;50.514;9.678;2022-12-18T10:29:29;100095.94;;;-8.31;100.00
29903;BME280;30288;50.514;9.678;2022-12-18T10:31:34;100093.84;;;-8.38;100.00
29903;BME280;30288;50.514;9.678;2022-12-18T10:33:40;100082.53;;;-8.25;100.00
29903;BME280;30288;50.514;9.678;2022-12-18T10:35:50;100091.38;;;-7.90;100.00
29903;BME280;30288;50.514;9.678;2022-12-18T10:38:22;100093.25;;;-7.86;100.00
29903;BME280;30288;50.514;9.678;2022-12-18T10:40:27;100085.97;;;-7.73;100.00
29903;BME280;30288;50.514;9.678;2022-12-18T10:42:32;100091.22;;;-7.80;100.00
29903;BME280;30288;50.514;9.678;2022-12-18T10:44:37;100087.25;;;-7.67;100.00
29903;BME280;30288;50.514;9.678;2022-12-18T10:46:42;100085.06;;;-7.75;100.00
29903;BME280;30288;50.514;9.678;2022-12-18T10:48:53;100084.34;;;-7.61;100.00
29903;BME280;30288;50.514;9.678;2022-12-18T10:51:03;100082.50;;;-7.52;100.00
29903;BME280;30288;50.514;9.678;2022-12-18T10:53:20;100071.63;;;-7.31;100.00
29903;BME280;30288;50.514;9.678;2022-12-18T10:55:31;100063.56;;;-7.17;100.00